Time;durP1;ratioP1;P1;durP2;ratioP2;P2;SDS_P1;SDS_P2;PMS_P1;PMS_P2;Temp;Humidity;BMP_temperature;BMP_pressure;BME280_temperature;BME280_humidity;BME280_pressure;Samples;Min_cycle;Max_cycle;Signal;HPM_P1;HPM_P2
2022/03/19 00:00:03;;;;;;;29.38;17.90;;;;;;;5.87;75.80;104306.22;5015755;28;20064;-56
2022/03/19 00:02:29;;;;;;;24.73;15.98;;;;;;;5.87;75.65;104297.13;5015768;28;20026;-57
2022/03/19 00:04:54;;;;;;;24.45;16.63;;;;;;;5.84;76.08;104303.00;5015623;28;20092;-56
2022/03/19 00:07:19;;;;;;;27.00;16.73;;;;;;;5.77;75.88;104298.25;5015548;28;20473;-56
2022/03/19 00:09:45;;;;;;;24.67;16.35;;;;;;;5.80;75.93;104310.78;5015060;28;20032;-57
2022/03/19 00:12:14;;;;;;;23.88;16.20;;;;;;;5.76;76.36;104301.19;5015361;28;20054;-56
2022/03/19 00:14:42;;;;;;;27.15;16.42;;;;;;;5.74;76.74;104298.66;5015874;28;20022;-56
2022/03/19 00:17:10;;;;;;;25.70;17.00;;;;;;;5.74;76.60;104304.16;5015344;28;20429;-57
2022/03/19 00:19:35;;;;;;;25.75;16.58;;;;;;;5.71;76.38;104310.00;4997907;28;20030;-55
2022/03/19 00:22:01;;;;;;;25.25;16.77;;;;;;;5.69;77.27;104301.09;5015317;28;20026;-56
2022/03/19 00:24:26;;;;;;;25.73;16.73;;;;;;;5.68;76.96;104298.53;5015071;28;20030;-55
2022/03/19 00:26:51;;;;;;;24.60;16.40;;;;;;;5.64;77.06;104295.31;5015150;28;20473;-56
2022/03/19 00:29:17;;;;;;;26.08;17.45;;;;;;;5.58;76.79;104299.66;4997582;28;20077;-56
2022/03/19 00:31:42;;;;;;;27.17;17.67;;;;;;;5.56;77.53;104298.16;5015265;28;20033;-56
2022/03/19 00:34:07;;;;;;;24.63;17.10;;;;;;;5.52;77.77;104296.81;4997689;28;20033;-56
2022/03/19 00:36:32;;;;;;;27.25;17.50;;;;;;;5.48;77.80;104290.84;5015076;28;20038;-57
2022/03/19 00:38:58;;;;;;;23.55;16.67;;;;;;;5.46;78.38;104291.03;5014934;28;20113;-56
2022/03/19 00:41:23;;;;;;;27.20;18.05;;;;;;;5.46;78.26;104299.28;5014755;28;20107;-56
2022/03/19 00:43:49;;;;;;;27.13;18.08;;;;;;;5.44;78.25;104289.50;5014720;28;20030;-56
2022/03/19 00:46:15;;;;;;;27.50;18.58;;;;;;;5.44;78.32;104292.25;5014718;28;20041;-56
2022/03/19 00:48:41;;;;;;;28.23;18.05;;;;;;;5.43;78.31;104287.81;5014819;28;20060;-56
2022/03/19 00:51:06;;;;;;;28.77;19.80;;;;;;;5.40;78.63;104288.19;4996978;28;20026;-56
2022/03/19 00:53:32;;;;;;;24.38;18.15;;;;;;;5.39;78.71;104289.22;5014634;28;20033;-56
2022/03/19 00:55:57;;;;;;;26.90;18.88;;;;;;;5.38;78.43;104285.63;5014682;28;20030;-56
2022/03/19 00:58:22;;;;;;;28.25;19.40;;;;;;;5.33;78.81;104276.25;5014462;28;20080;-56
2022/03/19 01:00:48;;;;;;;27.05;19.30;;;;;;;5.32;78.82;104289.09;4996718;28;20065;-56
2022/03/19 01:03:13;;;;;;;27.35;19.92;;;;;;;5.31;79.55;104282.75;5014573;28;20080;-56
2022/03/19 01:05:39;;;;;;;29.33;20.83;;;;;;;5.29;80.09;104289.50;5014367;28;20437;-56
2022/03/19 01:08:04;;;;;;;28.60;19.85;;;;;;;5.29;79.96;104295.81;5014342;28;20346;-56
2022/03/19 01:10:30;;;;;;;28.67;20.45;;;;;;;5.28;80.31;104285.88;5014244;28;20128;-55
2022/03/19 01:12:57;;;;;;;27.42;19.88;;;;;;;5.22;79.78;104272.91;5014125;28;20540;-56
2022/03/19 01:15:23;;;;;;;29.92;21.50;;;;;;;5.24;80.44;104286.44;5014157;28;20037;-56
2022/03/19 01:17:49;;;;;;;28.98;20.42;;;;;;;5.22;81.16;104283.00;5014140;28;20080;-56
2022/03/19 01:20:16;;;;;;;27.73;20.38;;;;;;;5.19;81.12;104281.50;5013988;28;20117;-56
2022/03/19 01:22:44;;;;;;;30.25;20.90;;;;;;;5.14;80.67;104276.56;5013513;28;20463;-56
2022/03/19 01:25:11;;;;;;;31.67;21.15;;;;;;;5.10;81.55;104277.94;5014054;28;20069;-56
2022/03/19 01:27:39;;;;;;;30.85;20.95;;;;;;;5.06;81.99;104282.13;5014052;28;20473;-56
2022/03/19 01:30:06;;;;;;;28.52;21.10;;;;;;;5.03;81.75;104284.38;5014159;28;20064;-55
2022/03/19 01:32:32;;;;;;;30.83;21.20;;;;;;;5.01;82.20;104284.53;5014231;28;20108;-56
2022/03/19 01:34:58;;;;;;;31.30;21.92;;;;;;;5.00;82.27;104285.63;4996245;28;20026;-56
2022/03/19 01:37:23;;;;;;;30.48;21.30;;;;;;;4.97;82.71;104278.56;5013782;28;20048;-56
2022/03/19 01:39:49;;;;;;;27.63;20.30;;;;;;;4.97;82.45;104284.06;5013887;28;20029;-56
2022/03/19 01:42:25;;;;;;;29.38;21.08;;;;;;;4.92;83.04;104272.81;5013813;28;20140;-56
2022/03/19 01:44:52;;;;;;;31.70;22.00;;;;;;;4.94;83.57;104281.72;5013979;28;20026;-56
2022/03/19 01:47:17;;;;;;;29.55;20.33;;;;;;;4.95;83.80;104277.06;5013793;28;20022;-55
2022/03/19 01:49:42;;;;;;;28.98;20.63;;;;;;;4.91;83.50;104273.84;5013762;28;20534;-57
2022/03/19 01:52:08;;;;;;;30.95;21.90;;;;;;;4.92;83.04;104272.81;4996160;28;20045;-56
2022/03/19 01:54:36;;;;;;;31.33;21.10;;;;;;;4.75;84.13;104244.63;5013906;28;20125;-56
2022/03/19 01:57:02;;;;;;;30.80;21.85;;;;;;;4.90;84.61;104274.03;4995879;28;20026;-56
2022/03/19 01:59:31;;;;;;;30.48;21.52;;;;;;;4.88;84.70;104265.13;5013710;28;20076;-56
2022/03/19 02:01:58;;;;;;;28.92;20.80;;;;;;;4.77;84.04;104261.75;5013623;28;20026;-56
2022/03/19 02:04:24;;;;;;;27.73;20.63;;;;;;;4.81;84.92;104263.13;5013463;28;20504;-57
2022/03/19 02:06:49;;;;;;;29.30;21.38;;;;;;;4.80;84.75;104271.50;5013461;28;20037;-55
2022/03/19 02:09:15;;;;;;;31.48;21.92;;;;;;;4.79;84.83;104267.06;5013572;28;20022;-55
2022/03/19 02:11:40;;;;;;;31.40;22.25;;;;;;;4.74;85.36;104266.75;5013517;28;20041;-55
2022/03/19 02:14:06;;;;;;;27.98;21.17;;;;;;;4.71;85.60;104257.03;5013708;28;20041;-56
2022/03/19 02:16:32;;;;;;;31.88;21.95;;;;;;;4.68;85.23;104258.22;5013583;28;20029;-56
2022/03/19 02:18:58;;;;;;;31.30;21.92;;;;;;;4.63;85.74;104246.94;5013316;28;20030;-55
2022/03/19 02:21:23;;;;;;;31.90;22.70;;;;;;;4.62;86.30;104247.16;4995645;28;20084;-55
2022/03/19 02:26:44;;;;;;;29.80;20.95;;;;;;;4.56;86.53;104243.22;5013733;28;20081;-56
2022/03/19 02:29:09;;;;;;;29.73;21.73;;;;;;;4.55;86.74;104238.78;5013170;28;20125;-55
2022/03/19 02:31:39;;;;;;;31.83;21.75;;;;;;;4.53;86.53;104232.63;5013126;28;20077;-56
2022/03/19 02:34:08;;;;;;;31.40;21.75;;;;;;;4.51;87.15;104227.34;5016787;28;20394;-56
2022/03/19 02:36:33;;;;;;;31.50;22.33;;;;;;;4.49;87.52;104234.00;5017135;28;20481;-55
2022/03/19 02:38:58;;;;;;;30.58;21.42;;;;;;;4.50;87.61;104232.97;5017417;28;20029;-55
2022/03/19 02:41:24;;;;;;;31.98;20.88;;;;;;;4.47;87.34;104225.13;5017045;28;20108;-56
2022/03/19 02:43:49;;;;;;;29.27;20.85;;;;;;;4.43;87.91;104230.13;5016913;28;20038;-55
2022/03/19 02:46:14;;;;;;;30.83;20.38;;;;;;;4.42;87.20;104227.53;5017022;28;20492;-55
2022/03/19 02:48:39;;;;;;;30.85;21.23;;;;;;;4.40;87.92;104226.88;5017083;28;20022;-55
2022/03/19 02:51:08;;;;;;;32.28;20.63;;;;;;;4.37;88.89;104233.56;5017271;28;20544;-55
2022/03/19 02:53:33;;;;;;;31.10;21.35;;;;;;;4.37;88.44;104226.22;5017066;28;20047;-56
2022/03/19 02:55:58;;;;;;;28.65;21.58;;;;;;;4.36;89.15;104229.13;5016980;28;20109;-55
2022/03/19 02:58:24;;;;;;;31.30;20.73;;;;;;;4.32;89.11;104234.13;5016985;28;20358;-56
2022/03/19 03:00:49;;;;;;;30.80;22.00;;;;;;;4.31;90.03;104229.66;4999064;28;20022;-56
2022/03/19 03:03:15;;;;;;;30.67;21.42;;;;;;;4.30;89.88;104229.84;5016783;28;20488;-56
2022/03/19 03:05:40;;;;;;;30.85;20.95;;;;;;;4.29;90.06;104231.75;5016909;28;20022;-56
2022/03/19 03:08:05;;;;;;;30.88;20.60;;;;;;;4.26;90.35;104223.88;5016704;28;20452;-56
2022/03/19 03:10:31;;;;;;;31.40;19.98;;;;;;;4.22;89.50;104223.38;4998889;28;20034;-59
2022/03/19 03:12:56;;;;;;;31.08;20.42;;;;;;;4.24;90.60;104214.97;5016390;28;20050;-56
2022/03/19 03:15:23;;;;;;;31.33;20.83;;;;;;;4.21;90.68;104218.06;5016612;28;20108;-56
2022/03/19 03:17:48;;;;;;;29.20;21.15;;;;;;;4.20;90.48;104217.22;4998814;28;20037;-56
2022/03/19 03:20:14;;;;;;;28.90;20.40;;;;;;;4.16;90.61;104221.34;4998742;28;20488;-55
2022/03/19 03:22:42;;;;;;;32.70;21.10;;;;;;;4.14;90.74;104207.00;5016437;28;20057;-55
2022/03/19 03:25:07;;;;;;;30.45;20.38;;;;;;;4.15;91.28;104219.66;5016465;28;20026;-55
2022/03/19 03:27:33;;;;;;;31.90;21.05;;;;;;;4.13;91.22;104215.38;5016319;28;20029;-56
2022/03/19 03:29:58;;;;;;;33.67;21.75;;;;;;;4.13;92.01;104221.72;5016117;28;20030;-56
2022/03/19 03:32:23;;;;;;;30.75;20.63;;;;;;;4.11;91.57;104212.00;5016302;28;20018;-56
2022/03/19 03:34:48;;;;;;;33.30;20.42;;;;;;;4.07;91.01;104219.69;5016256;28;20041;-56
2022/03/19 03:37:14;;;;;;;32.20;21.42;;;;;;;4.06;91.74;104213.38;5016288;28;20061;-56
2022/03/19 03:39:39;;;;;;;30.27;21.27;;;;;;;4.08;91.95;104215.91;5016174;28;20422;-56
2022/03/19 03:42:05;;;;;;;30.95;20.33;;;;;;;4.07;91.85;104216.94;5016145;28;20022;-55
2022/03/19 03:44:30;;;;;;;30.90;18.92;;;;;;;4.08;91.99;104213.19;4997484;28;20068;-55
2022/03/19 03:46:56;;;;;;;31.15;20.90;;;;;;;4.08;92.14;104215.91;5016102;28;20030;-55
2022/03/19 03:49:21;;;;;;;30.58;21.45;;;;;;;4.08;93.13;104209.59;5015919;28;20030;-55
2022/03/19 03:51:46;;;;;;;29.60;19.35;;;;;;;4.08;91.89;104202.22;5016219;28;20466;-55
2022/03/19 03:54:12;;;;;;;32.58;20.35;;;;;;;4.05;92.93;104206.19;5015841;28;20033;-56
2022/03/19 03:56:37;;;;;;;28.10;19.48;;;;;;;4.06;92.26;104207.03;5015881;28;20485;-55
2022/03/19 03:59:03;;;;;;;34.28;21.20;;;;;;;4.05;92.73;104200.69;5015754;28;20386;-56
2022/03/19 04:01:28;;;;;;;32.25;19.30;;;;;;;4.02;92.37;104183.75;5015679;28;20058;-56
2022/03/19 04:03:54;;;;;;;30.95;19.73;;;;;;;4.00;92.38;104194.91;5015629;28;20037;-55
2022/03/19 04:06:19;;;;;;;29.95;21.45;;;;;;;4.01;93.13;104195.75;5015518;28;20420;-55
2022/03/19 04:08:44;;;;;;;28.77;19.98;;;;;;;3.99;92.52;104184.97;5015718;28;20037;-56
2022/03/19 04:11:10;;;;;;;28.58;20.08;;;;;;;3.98;92.38;104196.97;5015232;28;20037;-56
2022/03/19 04:13:35;;;;;;;29.73;19.52;;;;;;;3.96;92.23;104192.72;5015445;28;20422;-56
2022/03/19 04:16:00;;;;;;;30.23;18.95;;;;;;;3.94;92.50;104203.81;5016066;28;20060;-56
2022/03/19 04:18:26;;;;;;;30.70;20.05;;;;;;;3.93;93.06;104195.81;5015601;28;20033;-56
2022/03/19 04:20:52;;;;;;;30.98;19.67;;;;;;;3.94;92.74;104197.50;5015497;28;20033;-56
2022/03/19 04:23:17;;;;;;;33.15;19.13;;;;;;;3.92;92.91;104188.59;5015623;28;20034;-56
2022/03/19 04:25:43;;;;;;;32.47;20.13;;;;;;;3.91;92.40;104187.78;5015325;28;20026;-56
2022/03/19 04:28:11;;;;;;;28.67;19.23;;;;;;;3.88;92.76;104194.44;5015121;28;20426;-56
2022/03/19 04:30:37;;;;;;;28.23;19.15;;;;;;;3.87;92.67;104200.94;5015299;28;20026;-55
2022/03/19 04:33:04;;;;;;;29.95;19.60;;;;;;;3.85;93.03;104193.94;5015095;28;20041;-55
2022/03/19 04:38:16;;;;;;;30.90;20.35;;;;;;;3.73;92.93;104169.69;5015294;28;20501;-56
2022/03/19 04:40:43;;;;;;;32.13;20.38;;;;;;;3.81;93.03;104181.66;4997327;28;20033;-56
2022/03/19 04:43:09;;;;;;;31.52;19.13;;;;;;;3.78;93.01;104182.84;5015033;28;20104;-56
2022/03/19 04:45:36;;;;;;;31.77;19.95;;;;;;;3.76;93.27;104184.94;5014798;28;20113;-56
2022/03/19 04:48:02;;;;;;;31.55;19.60;;;;;;;3.75;92.97;104175.84;5014913;28;20038;-56
2022/03/19 04:50:27;;;;;;;29.85;20.15;;;;;;;3.71;92.96;104179.09;5014753;28;20501;-56
2022/03/19 04:52:53;;;;;;;31.58;20.20;;;;;;;3.71;93.52;104181.84;4997050;28;20124;-56
2022/03/19 04:55:19;;;;;;;30.23;20.08;;;;;;;3.69;93.37;104175.69;5014118;28;20025;-56
2022/03/19 04:57:46;;;;;;;34.17;22.15;;;;;;;3.69;93.62;104179.28;5013988;28;20543;-56
2022/03/19 05:00:13;;;;;;;30.52;21.38;;;;;;;3.69;93.30;104178.44;4997048;28;20034;-57
2022/03/19 05:02:38;;;;;;;33.00;21.33;;;;;;;3.70;93.71;104178.28;5014686;28;20493;-56
2022/03/19 05:05:04;;;;;;;28.58;20.35;;;;;;;3.70;93.55;104180.13;5014408;28;20026;-56
2022/03/19 05:07:35;;;;;;;29.05;19.90;;;;;;;3.70;93.57;104174.66;5014933;28;20040;-55
2022/03/19 05:12:45;;;;;;;31.65;19.55;;;;;;;3.66;93.42;104176.06;5014578;28;20071;-56
2022/03/19 05:15:12;;;;;;;33.30;20.15;;;;;;;3.66;93.45;104187.00;5014354;28;20470;-55
2022/03/19 05:17:38;;;;;;;31.20;20.38;;;;;;;3.66;93.82;104189.75;5014379;28;20112;-55
2022/03/19 05:20:05;;;;;;;31.42;20.75;;;;;;;3.66;93.81;104185.13;5014236;28;20021;-55
2022/03/19 05:22:30;;;;;;;31.20;20.67;;;;;;;3.63;93.90;104188.22;5013956;28;20037;-56
2022/03/19 05:24:59;;;;;;;30.95;20.85;;;;;;;3.61;93.59;104189.41;4996949;28;20025;-55
2022/03/19 05:27:25;;;;;;;31.63;20.30;;;;;;;3.59;94.43;104193.19;5014063;28;20508;-56
2022/03/19 05:29:51;;;;;;;32.28;20.75;;;;;;;3.57;93.81;104189.78;5014085;28;20026;-56
2022/03/19 05:32:16;;;;;;;31.92;20.30;;;;;;;3.55;93.71;104194.56;5014169;28;20022;-57
2022/03/19 05:34:42;;;;;;;31.58;20.65;;;;;;;3.51;93.93;104190.47;5013984;28;20026;-56
2022/03/19 05:37:09;;;;;;;32.67;20.15;;;;;;;3.50;94.40;104187.91;4996437;28;20041;-56
2022/03/19 05:39:36;;;;;;;30.20;20.65;;;;;;;3.49;93.80;104197.16;5014208;28;20130;-56
2022/03/19 05:42:01;;;;;;;33.08;22.30;;;;;;;3.49;94.48;104199.91;5013863;28;20037;-56
2022/03/19 05:44:27;;;;;;;33.78;20.35;;;;;;;3.48;94.91;104195.44;5013855;28;20496;-56
2022/03/19 05:46:52;;;;;;;36.47;22.27;;;;;;;3.48;94.68;104199.06;4996111;28;20537;-56
2022/03/19 05:49:17;;;;;;;30.52;20.35;;;;;;;3.46;94.58;104194.75;5013891;28;20025;-56
2022/03/19 05:51:43;;;;;;;31.73;21.00;;;;;;;3.46;94.76;104205.72;4996180;28;20527;-56
2022/03/19 05:54:09;;;;;;;32.47;21.63;;;;;;;3.46;94.60;104202.97;5013692;28;20083;-56
2022/03/19 05:56:35;;;;;;;33.83;20.67;;;;;;;3.47;94.46;104201.94;5013896;28;20109;-56
2022/03/19 05:59:00;;;;;;;32.28;20.75;;;;;;;3.48;94.49;104200.94;5013621;28;20033;-56
2022/03/19 06:01:26;;;;;;;30.45;20.40;;;;;;;3.50;94.46;104207.91;5013670;28;20152;-56
2022/03/19 06:03:52;;;;;;;34.60;20.88;;;;;;;3.52;94.33;104208.59;5013694;28;20109;-56
2022/03/19 06:06:17;;;;;;;31.60;21.20;;;;;;;3.53;93.99;104206.75;5013610;28;20033;-55
2022/03/19 06:08:42;;;;;;;33.28;19.73;;;;;;;3.53;94.03;104204.84;5013194;28;20034;-56
2022/03/19 06:11:08;;;;;;;32.60;20.35;;;;;;;3.54;93.60;104206.56;5013572;28;20044;-57
2022/03/19 06:13:33;;;;;;;30.10;20.15;;;;;;;3.54;93.75;104209.28;5013524;28;20029;-56
2022/03/19 06:15:58;;;;;;;31.67;20.58;;;;;;;3.55;93.81;104207.41;5013436;28;20052;-55
2022/03/19 06:18:24;;;;;;;31.77;19.65;;;;;;;3.57;93.50;104206.22;5013499;28;20030;-56
2022/03/19 06:20:49;;;;;;;33.10;20.40;;;;;;;3.58;94.30;104205.19;5014008;28;20032;-56
2022/03/19 06:23:14;;;;;;;30.70;20.08;;;;;;;3.61;93.77;104212.19;5013549;28;20109;-55
2022/03/19 06:25:39;;;;;;;32.05;20.33;;;;;;;3.66;93.73;104206.19;5013238;28;20114;-56
2022/03/19 06:28:05;;;;;;;28.50;19.52;;;;;;;3.68;93.04;104204.13;5013472;28;20445;-56
2022/03/19 06:30:32;;;;;;;31.05;19.33;;;;;;;3.72;92.79;104217.28;5013307;28;20030;-56
2022/03/19 06:32:58;;;;;;;31.63;20.50;;;;;;;3.76;93.19;104209.56;5013436;28;20490;-56
2022/03/19 06:38:23;;;;;;;32.80;20.40;;;;;;;3.86;93.66;104214.81;4980567;28;20099;-56
2022/03/19 06:40:48;;;;;;;31.80;19.92;;;;;;;3.89;93.41;104212.56;5013548;28;20018;-56
2022/03/19 06:43:13;;;;;;;31.80;20.05;;;;;;;3.93;93.02;104215.81;5013128;28;20026;-56
2022/03/19 06:45:38;;;;;;;30.80;18.88;;;;;;;4.01;92.65;104203.97;5013282;28;20034;-55
2022/03/19 06:48:05;;;;;;;30.25;18.80;;;;;;;4.09;92.25;104208.56;5013097;28;20061;-56
2022/03/19 06:50:30;;;;;;;32.03;19.13;;;;;;;4.14;91.98;104204.25;5013065;28;20030;-56
2022/03/19 06:52:56;;;;;;;32.00;19.85;;;;;;;4.20;91.78;104209.00;5013053;28;20062;-55
2022/03/19 06:55:21;;;;;;;30.90;19.45;;;;;;;4.28;91.34;104204.50;5013083;28;20105;-55
2022/03/19 06:57:46;;;;;;;30.42;19.98;;;;;;;4.36;91.85;104209.94;5012977;28;20018;-55
2022/03/19 07:00:12;;;;;;;29.88;18.88;;;;;;;4.43;91.40;104210.06;5013134;28;20037;-56
2022/03/19 07:02:49;;;;;;;29.48;19.08;;;;;;;4.52;90.40;104206.22;5012911;28;20113;-56
2022/03/19 07:05:26;;;;;;;29.42;19.63;;;;;;;4.60;90.02;104199.84;5012973;28;20037;-56
2022/03/19 07:07:52;;;;;;;32.60;19.85;;;;;;;4.66;90.42;104201.84;5012800;28;20037;-55
2022/03/19 07:10:19;;;;;;;28.50;18.27;;;;;;;4.72;90.26;104195.66;5012919;28;20030;-56
2022/03/19 07:12:49;;;;;;;29.92;18.90;;;;;;;4.71;89.26;104185.72;5013172;28;20069;-55
2022/03/19 07:15:16;;;;;;;27.13;17.20;;;;;;;4.84;89.39;104188.66;5013019;28;20030;-56
2022/03/19 07:17:43;;;;;;;29.70;18.77;;;;;;;4.96;88.87;104194.53;5012914;28;20030;-56
2022/03/19 07:20:10;;;;;;;29.38;17.20;;;;;;;5.08;88.56;104194.09;5014811;28;20030;-56
2022/03/19 07:22:58;;;;;;;31.35;18.45;;;;;;;5.16;87.52;104199.50;5016380;28;20029;-56
2022/03/19 07:25:26;;;;;;;28.33;17.30;;;;;;;5.23;87.55;104197.75;5016161;28;20037;-56
2022/03/19 07:27:55;;;;;;;29.50;17.25;;;;;;;5.29;87.19;104193.41;5016280;28;20175;-56
2022/03/19 07:30:21;;;;;;;28.83;17.38;;;;;;;5.37;86.79;104204.28;4998598;28;20033;-55
2022/03/19 07:32:47;;;;;;;28.95;17.67;;;;;;;5.44;86.50;104198.88;5016604;28;20045;-56
2022/03/19 07:35:13;;;;;;;26.60;16.17;;;;;;;5.50;86.10;104205.50;4998617;28;20041;-56
2022/03/19 07:37:40;;;;;;;28.25;18.45;;;;;;;5.53;85.44;104203.22;4998531;28;20026;-55
2022/03/19 07:40:07;;;;;;;30.05;17.55;;;;;;;5.56;85.75;104191.03;5015966;28;20026;-56
2022/03/19 07:42:32;;;;;;;29.67;18.02;;;;;;;5.60;85.41;104192.34;5015933;28;20033;-56
2022/03/19 07:44:57;;;;;;;27.60;17.80;;;;;;;5.68;85.02;104202.38;5015826;28;20026;-56
2022/03/19 07:47:23;;;;;;;28.65;17.05;;;;;;;5.73;84.77;104186.19;5015937;28;20478;-56
2022/03/19 07:49:48;;;;;;;28.55;17.15;;;;;;;5.80;83.53;104189.00;5015826;28;20030;-56
2022/03/19 07:52:13;;;;;;;27.27;17.23;;;;;;;5.86;83.15;104189.09;4998191;28;20469;-56
2022/03/19 07:54:39;;;;;;;28.23;15.98;;;;;;;5.88;82.72;104188.91;5015877;28;20160;-56
2022/03/19 07:57:06;;;;;;;26.98;16.48;;;;;;;5.92;82.05;104188.34;5015693;28;20030;-56
2022/03/19 07:59:34;;;;;;;26.60;16.70;;;;;;;5.94;81.47;104182.66;5015910;28;20389;-56
2022/03/19 08:02:00;;;;;;;29.02;17.25;;;;;;;6.00;81.54;104175.56;5015787;28;20037;-57
2022/03/19 08:04:25;;;;;;;25.92;16.80;;;;;;;6.06;81.55;104194.88;5015500;28;20022;-56
2022/03/19 08:06:55;;;;;;;26.10;15.85;;;;;;;6.12;81.50;104185.00;5015558;28;20021;-57
2022/03/19 08:09:22;;;;;;;26.58;16.35;;;;;;;6.21;81.81;104183.00;5015619;28;20045;-56
2022/03/19 08:11:49;;;;;;;25.77;15.85;;;;;;;6.29;81.05;104188.38;5015454;28;20069;-56
2022/03/19 08:14:15;;;;;;;25.15;15.32;;;;;;;6.38;80.53;104195.44;5015806;28;20025;-57
2022/03/19 08:16:44;;;;;;;27.77;15.02;;;;;;;6.46;79.86;104199.13;5015439;28;20041;-56
2022/03/19 08:19:12;;;;;;;26.77;15.45;;;;;;;6.53;78.76;104195.41;5015276;28;20026;-57
2022/03/19 08:21:44;;;;;;;26.23;15.13;;;;;;;6.62;79.02;104189.75;5015441;28;20029;-56
2022/03/19 08:24:11;;;;;;;26.27;14.38;;;;;;;6.72;77.35;104201.28;5015475;28;20030;-56
2022/03/19 08:26:37;;;;;;;22.88;13.20;;;;;;;6.76;76.63;104202.56;5015423;28;20030;-56
2022/03/19 08:29:03;;;;;;;26.70;13.77;;;;;;;6.80;76.31;104198.41;5015409;28;20045;-56
2022/03/19 08:31:28;;;;;;;25.75;14.57;;;;;;;6.87;76.00;104199.31;5014957;28;20028;-55
2022/03/19 08:33:56;;;;;;;25.25;14.45;;;;;;;6.92;75.33;104193.19;5015353;28;20029;-55
2022/03/19 08:36:21;;;;;;;25.60;13.85;;;;;;;6.96;73.93;104197.28;5014926;28;20097;-55
2022/03/19 08:41:31;;;;;;;22.15;13.85;;;;;;;7.07;74.62;104195.03;5015259;28;20073;-55
2022/03/19 08:43:57;;;;;;;25.67;14.40;;;;;;;7.17;74.49;104193.59;5014866;28;20053;-55
2022/03/19 08:46:24;;;;;;;27.38;13.63;;;;;;;7.25;73.69;104189.00;5014902;28;20025;-55
2022/03/19 08:48:49;;;;;;;24.70;14.30;;;;;;;7.33;73.48;104186.94;5014722;28;20391;-55
2022/03/19 08:53:59;;;;;;;27.75;15.10;;;;;;;7.45;72.38;104189.97;5015149;28;20041;-55
2022/03/19 08:56:24;;;;;;;25.42;14.57;;;;;;;7.53;72.26;104190.84;4997146;28;20034;-55
2022/03/19 08:58:50;;;;;;;23.85;13.70;;;;;;;7.59;71.70;104190.06;5014799;28;20076;-56
2022/03/19 09:01:15;;;;;;;26.15;14.05;;;;;;;7.69;71.39;104186.91;5014461;28;20022;-55
2022/03/19 09:03:41;;;;;;;23.13;13.13;;;;;;;7.76;71.44;104183.16;5014611;28;20363;-56
2022/03/19 09:06:06;;;;;;;23.02;12.95;;;;;;;7.80;70.93;104181.66;5014393;28;20029;-56
2022/03/19 09:08:31;;;;;;;23.70;13.63;;;;;;;7.87;70.67;104181.72;5014814;28;20096;-56
2022/03/19 09:10:57;;;;;;;26.50;12.77;;;;;;;7.88;69.48;104179.81;5014252;28;20060;-56
2022/03/19 09:13:23;;;;;;;25.13;13.23;;;;;;;7.89;69.94;104171.34;5014939;28;20030;-55
2022/03/19 09:15:48;;;;;;;21.58;12.20;;;;;;;7.94;69.24;104163.28;5014176;28;20026;-55
2022/03/19 09:18:13;;;;;;;25.42;13.63;;;;;;;8.00;68.41;104172.63;4996720;28;20429;-56
2022/03/19 09:20:38;;;;;;;25.17;13.20;;;;;;;8.05;68.24;104178.41;5014017;28;20060;-56
2022/03/19 09:23:04;;;;;;;24.52;14.35;;;;;;;8.11;68.62;104172.03;5014359;28;20029;-56
2022/03/19 09:25:29;;;;;;;22.48;12.70;;;;;;;8.17;67.98;104162.09;4996540;28;20069;-56
2022/03/19 09:27:55;;;;;;;23.90;12.82;;;;;;;8.25;67.67;104169.31;5014115;28;20393;-56
2022/03/19 09:30:20;;;;;;;21.70;11.85;;;;;;;8.36;66.60;104165.94;4996447;28;20022;-56
2022/03/19 09:32:45;;;;;;;26.88;12.27;;;;;;;8.40;66.00;104158.09;5013982;28;20102;-55
2022/03/19 09:35:10;;;;;;;23.92;12.43;;;;;;;8.51;65.36;104157.50;4996584;28;20117;-55
2022/03/19 09:37:36;;;;;;;22.30;11.50;;;;;;;8.57;64.41;104153.91;4980050;28;20072;-55
2022/03/19 09:40:01;;;;;;;24.88;12.43;;;;;;;8.65;64.88;104155.59;4996221;28;20061;-56
2022/03/19 09:42:32;;;;;;;23.70;12.63;;;;;;;8.80;64.36;104155.38;5013252;28;20438;-56
2022/03/19 09:44:58;;;;;;;23.58;11.32;;;;;;;8.90;64.03;104153.03;5013644;28;20030;-56
2022/03/19 09:47:25;;;;;;;22.58;11.40;;;;;;;8.99;61.78;104150.94;5013693;28;20028;-56
2022/03/19 09:49:51;;;;;;;23.67;12.18;;;;;;;9.00;60.96;104152.63;4979886;28;20033;-57
2022/03/19 09:52:19;;;;;;;23.02;11.60;;;;;;;9.04;61.68;104142.00;4996214;28;20026;-56
2022/03/19 09:54:46;;;;;;;21.67;12.10;;;;;;;9.12;61.55;104147.28;5013503;28;20391;-56
2022/03/19 09:57:11;;;;;;;23.10;11.60;;;;;;;9.18;60.00;104145.59;5013551;28;20033;-56
2022/03/19 09:59:36;;;;;;;23.13;11.35;;;;;;;9.20;59.76;104136.00;5014235;28;20072;-56
2022/03/19 10:02:05;;;;;;;21.60;11.05;;;;;;;9.28;58.19;104134.94;5013700;28;20481;-57
2022/03/19 10:04:31;;;;;;;21.10;10.95;;;;;;;9.35;57.73;104124.72;5013557;28;20049;-56
2022/03/19 10:09:45;;;;;;;24.10;10.95;;;;;;;9.52;56.97;104114.03;5014095;28;20445;-56
2022/03/19 10:12:15;;;;;;;19.02;10.23;;;;;;;9.62;56.13;104113.56;5013233;28;20064;-56
2022/03/19 10:14:41;;;;;;;20.15;11.40;;;;;;;9.72;55.78;104107.56;5013610;28;20087;-57
2022/03/19 10:17:06;;;;;;;23.00;11.40;;;;;;;9.76;55.05;104089.44;5013471;28;20108;-56
2022/03/19 10:19:32;;;;;;;23.75;11.80;;;;;;;9.80;53.58;104098.16;4996030;28;20113;-56
2022/03/19 10:22:10;;;;;;;24.73;11.13;;;;;;;9.81;54.37;104086.03;5013299;28;20137;-56
2022/03/19 10:24:36;;;;;;;23.75;10.65;;;;;;;9.90;54.52;104083.84;5013127;28;20046;-56
2022/03/19 10:27:02;;;;;;;24.15;10.70;;;;;;;10.02;53.59;104082.06;5013426;28;20152;-56
2022/03/19 10:29:33;;;;;;;20.65;10.38;;;;;;;10.09;52.98;104080.13;4995660;28;20057;-56
2022/03/19 10:32:04;;;;;;;22.83;10.50;;;;;;;10.19;52.52;104067.72;5013411;28;20425;-57
2022/03/19 10:34:30;;;;;;;20.58;9.65;;;;;;;10.24;51.56;104076.16;5013202;28;20030;-58
2022/03/19 10:36:56;;;;;;;21.30;10.27;;;;;;;10.27;50.73;104068.25;5013326;28;20029;-56
2022/03/19 10:39:27;;;;;;;20.80;10.10;;;;;;;10.20;49.55;104055.56;5013032;28;20041;-57
2022/03/19 10:41:54;;;;;;;20.70;10.05;;;;;;;10.34;48.83;104061.84;5013237;28;20123;-58
2022/03/19 10:44:23;;;;;;;20.85;10.27;;;;;;;10.32;49.36;104045.44;5013005;28;20026;-57
2022/03/19 10:46:59;;;;;;;19.55;9.95;;;;;;;10.52;48.12;104059.16;5013050;28;20030;-57
2022/03/19 10:49:27;;;;;;;20.30;9.50;;;;;;;10.55;45.77;104044.00;5012979;28;20053;-57
2022/03/19 10:51:54;;;;;;;19.40;9.80;;;;;;;10.58;46.35;104052.72;5012916;28;20030;-57
2022/03/19 10:54:20;;;;;;;18.98;9.35;;;;;;;10.60;45.94;104041.41;5015501;28;20034;-57
2022/03/19 10:56:47;;;;;;;20.48;9.57;;;;;;;10.58;45.85;104027.78;5016774;28;20432;-57
2022/03/19 10:59:13;;;;;;;20.63;10.15;;;;;;;10.69;44.69;104041.97;5016991;28;20030;-57
2022/03/19 11:01:39;;;;;;;22.88;9.90;;;;;;;10.77;43.83;104038.88;5016943;28;20057;-56
2022/03/19 11:04:06;;;;;;;18.25;9.20;;;;;;;10.82;42.62;104013.28;5016796;28;20037;-57
2022/03/19 11:06:39;;;;;;;17.15;8.65;;;;;;;10.91;41.55;104009.13;5016692;28;20033;-56
2022/03/19 11:09:10;;;;;;;18.83;8.82;;;;;;;10.96;39.62;104020.34;5016912;28;20030;-56
2022/03/19 11:11:36;;;;;;;20.27;8.68;;;;;;;11.01;39.73;104014.09;4998910;28;20435;-57
2022/03/19 11:14:02;;;;;;;19.95;9.60;;;;;;;11.04;40.19;104010.88;4998940;28;20062;-57
2022/03/19 11:16:34;;;;;;;19.15;8.52;;;;;;;11.11;40.59;104008.03;5016441;28;20068;-57
2022/03/19 11:19:01;;;;;;;19.17;8.48;;;;;;;11.19;39.06;104005.78;5016684;28;20049;-56
2022/03/19 11:21:30;;;;;;;17.67;7.90;;;;;;;11.23;38.92;103997.88;4998855;28;20080;-57
2022/03/19 11:24:15;;;;;;;15.60;7.85;;;;;;;11.28;39.58;103994.41;5016518;28;20088;-57
2022/03/19 11:26:41;;;;;;;17.23;8.02;;;;;;;11.33;38.70;103991.75;5016397;28;20022;-57
2022/03/19 11:29:07;;;;;;;18.52;8.00;;;;;;;11.35;37.58;103984.91;5016236;28;20037;-56
2022/03/19 11:31:33;;;;;;;18.15;8.30;;;;;;;11.33;37.41;103978.75;5016363;28;20022;-57